Time;durP1;ratioP1;P1;durP2;ratioP2;P2;SDS_P1;SDS_P2;PMS_P1;PMS_P2;Temp;Humidity;BMP_temperature;BMP_pressure;BME280_temperature;BME280_humidity;BME280_pressure;Samples;Min_cycle;Max_cycle;Signal;HPM_P1;HPM_P2
2024/05/05 00:01:48;;;;;;;9.98;6.00;;;16.20;1.00;;;;;;10833249;27;20274;-83
2024/05/05 00:07:11;;;;;;;7.05;5.10;;;16.40;1.00;;;;;;10878289;27;20361;-84
2024/05/05 00:12:34;;;;;;;8.45;5.28;;;16.40;1.00;;;;;;10855547;27;20230;-84
2024/05/05 00:17:56;;;;;;;9.10;5.57;;;16.40;1.00;;;;;;10854358;27;20514;-84
2024/05/05 00:23:17;;;;;;;6.97;4.80;;;16.30;1.00;;;;;;10855627;27;20255;-84
2024/05/05 00:28:38;;;;;;;8.00;4.82;;;16.20;1.00;;;;;;10826316;27;20261;-84
2024/05/05 00:34:00;;;;;;;9.10;5.07;;;16.30;1.00;;;;;;10828048;27;20268;-84
2024/05/05 00:39:21;;;;;;;7.82;5.35;;;16.20;1.00;;;;;;10831032;27;20242;-84
2024/05/05 00:44:43;;;;;;;8.13;5.07;;;16.10;1.00;;;;;;10855654;27;20263;-85
2024/05/05 00:50:08;;;;;;;9.57;5.63;;;16.00;1.00;;;;;;10830248;27;20248;-84
2024/05/05 00:55:30;;;;;;;7.70;5.40;;;16.00;1.00;;;;;;10878991;27;20356;-84
2024/05/05 01:00:52;;;;;;;8.10;5.63;;;15.90;1.00;;;;;;10847865;27;20289;-83
2024/05/05 01:06:14;;;;;;;8.93;5.57;;;15.90;1.00;;;;;;10826643;27;20270;-84
2024/05/05 01:11:35;;;;;;;7.88;5.22;;;15.80;1.00;;;;;;10849695;27;20249;-84
2024/05/05 01:16:57;;;;;;;7.75;5.45;;;15.70;1.00;;;;;;10877126;27;20321;-85
2024/05/05 01:22:18;;;;;;;9.43;5.40;;;15.80;99.90;;;;;;10831010;27;20218;-85
2024/05/05 01:27:40;;;;;;;9.30;6.00;;;15.70;1.00;;;;;;10825069;27;20267;-84
2024/05/05 01:33:02;;;;;;;8.38;5.20;;;15.70;1.00;;;;;;10830394;27;20241;-84
2024/05/05 01:38:24;;;;;;;9.40;5.97;;;15.60;45.20;;;;;;10802250;27;20269;-85
2024/05/05 01:43:47;;;;;;;9.20;5.35;;;;;;;;;;10875416;27;20244;-84
2024/05/05 01:49:11;;;;;;;10.30;6.10;;;;;;;;;;10852994;27;20244;-82
2024/05/05 01:54:37;;;;;;;7.45;5.38;;;;;;;;;;10823636;27;20465;-83
2024/05/05 01:59:59;;;;;;;8.73;6.40;;;15.30;99.90;;;;;;10784361;27;20252;-84
2024/05/05 02:05:25;;;;;;;9.50;6.10;;;;;;;;;;10820382;27;20439;-85
2024/05/05 02:11:35;;;;;;;7.28;5.75;;;15.00;1.00;;;;;;10853179;27;20311;-84
2024/05/05 02:16:59;;;;;;;7.28;5.53;;;;;;;;;;10831688;27;20285;-85
2024/05/05 02:22:20;;;;;;;9.45;6.00;;;14.80;1.00;;;;;;10846932;27;20256;-84
2024/05/05 02:27:42;;;;;;;12.48;6.38;;;14.70;1.00;;;;;;10824654;27;20271;-85
2024/05/05 02:33:04;;;;;;;10.00;6.97;;;14.70;1.00;;;;;;10849130;27;20289;-85
2024/05/05 02:38:25;;;;;;;10.40;6.53;;;14.60;1.00;;;;;;10859699;27;20260;-85
2024/05/05 02:43:47;;;;;;;8.75;6.25;;;14.60;67.90;;;;;;10807463;27;20270;-85
2024/05/05 02:49:10;;;;;;;11.50;6.05;;;14.60;1.00;;;;;;10870561;27;20254;-84
2024/05/05 02:54:31;;;;;;;10.35;6.55;;;14.50;99.90;;;;;;10809269;27;20326;-84
2024/05/05 02:59:53;;;;;;;9.73;6.65;;;14.50;19.90;;;;;;10858266;27;20240;-85
2024/05/05 03:05:14;;;;;;;10.40;7.68;;;14.50;70.80;;;;;;10845279;27;20244;-85
2024/05/05 03:10:37;;;;;;;9.40;6.55;;;14.40;99.90;;;;;;10798048;27;20315;-85
2024/05/05 03:15:58;;;;;;;13.07;7.18;;;14.40;99.90;;;;;;10880137;27;20248;-84
2024/05/05 03:21:19;;;;;;;19.92;9.30;;;14.40;99.90;;;;;;10857850;27;20264;-84
2024/05/05 03:26:46;;;;;;;14.50;9.18;;;14.30;99.90;;;;;;10811467;27;20263;-84
2024/05/05 03:32:07;;;;;;;17.55;9.88;;;14.30;99.90;;;;;;10773569;27;20268;-85
2024/05/05 03:37:29;;;;;;;11.00;7.90;;;14.30;99.90;;;;;;10825373;27;20260;-84
2024/05/05 03:42:51;;;;;;;10.32;7.35;;;14.30;98.40;;;;;;10850753;27;20262;-85
2024/05/05 03:48:12;;;;;;;11.15;6.45;;;14.30;98.30;;;;;;10857290;27;20251;-84
2024/05/05 03:53:34;;;;;;;10.05;6.65;;;14.30;51.90;;;;;;10804440;27;20248;-86
2024/05/05 03:58:55;;;;;;;9.63;6.55;;;14.40;99.90;;;;;;10880521;27;20271;-85
2024/05/05 04:04:18;;;;;;;10.05;6.45;;;14.50;6.10;;;;;;10836678;27;20252;-84
2024/05/05 04:09:39;;;;;;;10.43;7.03;;;14.50;1.00;;;;;;10833285;27;20460;-85
2024/05/05 04:15:01;;;;;;;13.70;8.90;;;14.50;1.00;;;;;;10878778;27;20285;-86
2024/05/05 04:20:22;;;;;;;13.98;8.25;;;14.50;1.00;;;;;;10806156;27;20255;-86
2024/05/05 04:25:44;;;;;;;13.85;8.45;;;14.50;1.00;;;;;;10772735;27;20242;-86
2024/05/05 04:31:07;;;;;;;12.48;7.90;;;14.50;1.00;;;;;;10858929;27;20229;-85
2024/05/05 04:36:28;;;;;;;10.35;8.25;;;14.50;1.00;;;;;;10856673;27;20313;-85
2024/05/05 04:41:50;;;;;;;12.57;7.72;;;14.50;40.90;;;;;;10840101;27;20261;-84
2024/05/05 04:47:11;;;;;;;16.15;11.25;;;14.60;60.90;;;;;;10878444;27;20261;-84
2024/05/05 04:52:33;;;;;;;19.90;9.23;;;14.60;1.00;;;;;;10853625;27;20294;-85
2024/05/05 04:57:55;;;;;;;9.15;7.10;;;14.60;1.00;;;;;;10825186;27;20273;-84
2024/05/05 05:03:16;;;;;;;10.90;7.55;;;14.50;99.90;;;;;;10851620;27;20268;-84
2024/05/05 05:08:38;;;;;;;9.15;6.90;;;14.60;36.60;;;;;;10853799;27;20336;-85
2024/05/05 05:14:06;;;;;;;10.15;6.63;;;14.80;25.90;;;;;;10853010;27;20406;-86
2024/05/05 05:19:28;;;;;;;9.57;6.53;;;14.90;1.00;;;;;;10878369;27;20263;-85
2024/05/05 05:24:49;;;;;;;8.50;7.00;;;15.00;1.00;;;;;;10847110;27;20265;-84
2024/05/05 05:30:11;;;;;;;9.60;6.97;;;15.00;1.00;;;;;;10853417;27;20240;-83
2024/05/05 05:35:33;;;;;;;8.82;6.03;;;15.10;57.70;;;;;;10799856;27;20365;-83
2024/05/05 05:40:54;;;;;;;10.50;7.60;;;15.30;1.00;;;;;;10830217;27;20227;-83
2024/05/05 05:46:16;;;;;;;8.25;7.30;;;15.40;1.00;;;;;;10852309;27;20240;-85
2024/05/05 05:51:37;;;;;;;16.77;9.18;;;15.50;1.00;;;;;;10852815;27;20468;-83
2024/05/05 05:56:59;;;;;;;18.08;10.00;;;15.70;1.00;;;;;;10832872;27;20317;-83
2024/05/05 06:02:21;;;;;;;16.73;11.95;;;16.00;1.00;;;;;;10833788;27;20319;-84
2024/05/05 06:07:43;;;;;;;14.50;11.02;;;16.30;1.00;;;;;;10826086;27;20265;-85
2024/05/05 06:13:04;;;;;;;15.30;11.80;;;16.30;1.00;;;;;;10835527;27;20254;-84
2024/05/05 06:18:26;;;;;;;14.52;11.68;;;16.40;99.90;;;;;;10872242;27;20250;-83
2024/05/05 06:23:47;;;;;;;14.70;10.52;;;16.80;99.90;;;;;;10808390;27;20237;-82
2024/05/05 06:29:09;;;;;;;15.80;9.73;;;17.10;99.90;;;;;;10881384;27;20367;-83
2024/05/05 06:34:32;;;;;;;14.70;11.63;;;17.80;99.90;;;;;;10856597;27;20248;-83
2024/05/05 06:39:53;;;;;;;15.13;11.30;;;18.60;1.00;;;;;;10793804;27;20231;-83
2024/05/05 06:45:15;;;;;;;15.90;10.82;;;19.30;1.00;;;;;;10881003;27;20250;-85
2024/05/05 06:50:36;;;;;;;10.82;9.35;;;20.00;1.00;;;;;;10858244;27;20230;-84
2024/05/05 06:55:58;;;;;;;11.70;9.30;;;20.60;1.00;;;;;;10856510;27;20509;-84
2024/05/05 07:01:19;;;;;;;16.00;9.10;;;20.90;1.00;;;;;;10880909;27;20312;-84
2024/05/05 07:06:41;;;;;;;16.70;11.70;;;21.30;1.00;;;;;;10856495;27;20242;-86
2024/05/05 07:12:03;;;;;;;14.57;9.85;;;21.20;1.00;;;;;;10810170;27;20479;-84
2024/05/05 07:17:24;;;;;;;9.27;7.93;;;21.20;1.00;;;;;;10828647;27;20276;-83
2024/05/05 07:22:46;;;;;;;11.88;8.63;;;21.70;1.00;;;;;;10857595;27;20301;-84
2024/05/05 07:28:07;;;;;;;11.63;8.45;;;22.60;1.00;;;;;;10851281;27;20238;-84
2024/05/05 07:33:29;;;;;;;13.98;7.03;;;23.20;1.00;;;;;;10852277;27;20237;-85
2024/05/05 07:38:50;;;;;;;12.68;8.73;;;23.90;1.00;;;;;;10881043;27;20349;-85
2024/05/05 07:44:17;;;;;;;10.52;6.72;;;24.30;1.00;;;;;;10856534;27;20625;-85
2024/05/05 07:49:38;;;;;;;13.02;8.57;;;24.70;1.00;;;;;;10806281;27;20346;-84
2024/05/05 07:55:00;;;;;;;12.27;6.65;;;25.20;1.00;;;;;;10855262;27;20233;-85
2024/05/05 08:00:22;;;;;;;11.20;6.75;;;;;;;;;;10856608;27;20313;-84
2024/05/05 08:05:43;;;;;;;9.55;5.82;;;26.20;1.00;;;;;;10795120;27;20596;-85
2024/05/05 08:11:05;;;;;;;6.78;5.68;;;26.60;1.00;;;;;;10719964;27;20232;-85
2024/05/05 08:16:27;;;;;;;14.07;5.63;;;26.90;1.00;;;;;;10745328;27;20266;-84
2024/05/05 08:21:49;;;;;;;8.70;5.57;;;;;;;;;;10746361;27;20236;-84
2024/05/05 08:27:11;;;;;;;5.75;5.05;;;27.60;1.00;;;;;;10745122;27;20295;-85
2024/05/05 08:32:32;;;;;;;8.60;5.82;;;28.20;1.00;;;;;;10741058;27;20362;-85
2024/05/05 08:37:54;;;;;;;7.82;5.90;;;;;;;;;;10718470;27;20319;-85
2024/05/05 08:43:22;;;;;;;10.98;5.35;;;29.10;1.00;;;;;;10742544;27;20274;-85
2024/05/05 08:48:47;;;;;;;11.18;5.45;;;28.60;99.90;;;;;;10665484;27;20262;-85
2024/05/05 08:54:09;;;;;;;6.43;5.43;;;29.00;99.90;;;;;;10719334;27;20459;-84
2024/05/05 08:59:31;;;;;;;7.07;4.93;;;;;;;;;;10740169;27;20243;-85
2024/05/05 09:04:53;;;;;;;5.35;4.82;;;;;;;;;;10707923;27;20291;-85
2024/05/05 09:10:25;;;;;;;7.40;4.93;;;30.10;1.00;;;;;;10717345;27;20262;-85
2024/05/05 09:15:47;;;;;;;8.95;5.10;;;30.10;1.00;;;;;;10742795;27;20480;-85
2024/05/05 09:21:08;;;;;;;12.40;5.57;;;30.10;1.00;;;;;;10674101;27;20257;-86
2024/05/05 09:26:34;;;;;;;9.48;4.07;;;30.30;1.00;;;;;;10703415;27;20388;-85
2024/05/05 09:31:55;;;;;;;9.50;4.40;;;30.50;1.00;;;;;;10744161;27;20348;-86
2024/05/05 09:37:19;;;;;;;5.70;3.95;;;30.70;1.00;;;;;;10738032;27;20244;-85
2024/05/05 09:42:40;;;;;;;3.83;3.47;;;30.80;99.90;;;;;;10702738;27;20275;-85
2024/05/05 09:48:05;;;;;;;3.78;2.90;;;;;;;;;;10744037;27;20338;-84
2024/05/05 09:53:48;;;;;;;6.38;2.90;;;;;;;;;;10695840;27;20240;-85
2024/05/05 09:59:21;;;;;;;4.45;3.83;;;;;;;;;;10732059;27;20476;-85
2024/05/05 10:04:43;;;;;;;6.82;3.30;;;;;;;;;;10782297;27;20359;-84
2024/05/05 10:10:06;;;;;;;6.88;2.80;;;;;;;;;;10812537;27;20235;-85
2024/05/05 10:15:29;;;;;;;4.32;2.92;;;;;;;;;;10814383;27;20467;-84
2024/05/05 10:20:51;;;;;;;6.25;2.50;;;;;;;;;;10789068;27;20235;-85
2024/05/05 10:26:13;;;;;;;3.28;2.80;;;;;;;;;;10817646;27;20230;-84
2024/05/05 10:31:35;;;;;;;5.82;3.15;;;;;;;;;;10811419;27;20272;-85
2024/05/05 10:36:57;;;;;;;4.57;3.33;;;;;;;;;;10790225;27;20399;-85
2024/05/05 10:42:20;;;;;;;8.00;3.42;;;;;;;;;;10809967;27;20282;-85
2024/05/05 10:47:42;;;;;;;4.30;2.55;;;;;;;;;;10760545;27;20258;-85
2024/05/05 10:53:04;;;;;;;3.17;2.25;;;;;;;;;;10831948;27;20298;-85
2024/05/05 10:58:26;;;;;;;5.00;2.58;;;;;;;;;;10810484;27;20323;-84
2024/05/05 11:03:49;;;;;;;6.45;2.25;;;;;;;;;;10841770;27;20262;-85
2024/05/05 11:09:11;;;;;;;2.85;2.13;;;;;;;;;;10882169;27;20312;-85
2024/05/05 11:14:43;;;;;;;4.45;2.40;;;;;;;;;;10856941;27;20285;-85
2024/05/05 11:20:05;;;;;;;14.68;6.10;;;;;;;;;;10852086;27;20253;-85
2024/05/05 11:25:27;;;;;;;6.78;2.30;;;;;;;;;;10805354;27;20281;-85
2024/05/05 11:30:51;;;;;;;2.08;1.88;;;;;;;;;;10761595;27;20270;-85
2024/05/05 11:36:13;;;;;;;1.73;1.55;;;;;;;;;;10850083;27;20481;-85
2024/05/05 11:41:54;;;;;;;5.32;1.95;;;;;;;;;;10852011;27;20294;-84
2024/05/05 11:47:19;;;;;;;7.72;2.88;;;;;;;;;;10761144;27;20235;-84
2024/05/05 11:53:09;;;;;;;2.80;1.80;;;;;;;;;;10850397;27;20245;-85
2024/05/05 11:58:31;;;;;;;5.72;2.28;;;;;;;;;;10856942;27;20504;-84
2024/05/05 12:03:53;;;;;;;9.88;2.40;;;;;;;;;;10877391;27;20250;-84
2024/05/05 12:09:16;;;;;;;4.32;2.30;;;;;;;;;;10856342;27;20218;-84
2024/05/05 12:14:38;;;;;;;3.47;1.70;;;;;;;;;;10827379;27;20245;-85
2024/05/05 12:20:00;;;;;;;5.18;2.28;;;;;;;;;;10833243;27;20265;-84
2024/05/05 12:25:56;;;;;;;2.28;2.08;;;;;;;;;;10853769;27;20285;-84
2024/05/05 12:31:19;;;;;;;4.63;2.35;;;;;;;;;;10856262;27;20300;-84
2024/05/05 12:36:58;;;;;;;4.30;2.13;;;;;;;;;;10862375;27;20246;-85
2024/05/05 12:42:20;;;;;;;5.13;2.42;;;;;;;;;;10853960;27;20254;-84
2024/05/05 12:47:42;;;;;;;6.18;2.30;;;;;;;;;;10832570;27;20233;-84
2024/05/05 12:53:04;;;;;;;11.10;1.98;;;;;;;;;;10824967;27;20265;-84
2024/05/05 12:58:26;;;;;;;2.00;1.30;;;24.20;1.00;;;;;;10855151;27;20234;-83
2024/05/05 13:03:48;;;;;;;4.32;1.80;;;22.80;99.90;;;;;;10826090;27;20273;-84
2024/05/05 13:09:10;;;;;;;4.88;1.85;;;22.50;99.90;;;;;;10878745;27;20222;-84
2024/05/05 13:14:33;;;;;;;8.20;2.17;;;;;;;;;;10876125;27;20245;-84
2024/05/05 13:19:55;;;;;;;6.70;1.85;;;;;;;;;;10826727;27;20476;-84
2024/05/05 13:25:17;;;;;;;2.90;1.73;;;;;;;;;;10783626;27;20271;-84
2024/05/05 13:30:39;;;;;;;5.22;2.13;;;;;;;;;;10794530;27;20264;-84
2024/05/05 13:36:01;;;;;;;5.45;1.95;;;;;;;;;;10848897;27;20307;-84
2024/05/05 13:41:23;;;;;;;3.78;1.70;;;;;;;;;;10852703;27;20275;-84
2024/05/05 13:46:46;;;;;;;2.58;1.92;;;;;;;;;;10853608;27;20214;-84
2024/05/05 13:52:08;;;;;;;2.15;1.90;;;;;;;;;;10851704;27;20388;-83
2024/05/05 13:57:30;;;;;;;4.68;2.38;;;;;;;;;;10876985;27;20245;-83
2024/05/05 14:02:52;;;;;;;4.13;2.35;;;;;;;;;;10823494;27;20349;-84
2024/05/05 14:08:14;;;;;;;4.20;2.00;;;;;;;;;;10853020;27;20321;-84
2024/05/05 14:13:36;;;;;;;3.75;3.15;;;;;;;;;;10801029;27;20282;-84
2024/05/05 14:18:58;;;;;;;4.63;2.50;;;;;;;;;;10812164;27;20252;-84
2024/05/05 14:24:20;;;;;;;4.38;2.55;;;;;;;;;;10851175;27;20299;-84
2024/05/05 14:29:42;;;;;;;6.35;2.50;;;;;;;;;;10828146;27;20225;-84
2024/05/05 14:35:04;;;;;;;12.55;3.65;;;;;;;;;;10836036;27;20365;-85
2024/05/05 14:40:26;;;;;;;3.90;2.97;;;;;;;;;;10881676;27;22290;-85
2024/05/05 14:45:48;;;;;;;8.63;2.42;;;;;;;;;;10836180;27;20226;-85
2024/05/05 14:51:10;;;;;;;5.15;2.63;;;;;;;;;;10856895;27;20278;-85
2024/05/05 14:56:31;;;;;;;7.43;3.38;;;20.10;1.00;;;;;;10854309;27;20338;-85
2024/05/05 15:01:53;;;;;;;4.57;2.70;;;20.00;99.90;;;;;;10829611;27;20485;-85
2024/05/05 15:07:14;;;;;;;3.83;2.63;;;19.90;99.90;;;;;;10851499;27;20580;-86
2024/05/05 15:12:36;;;;;;;8.45;4.95;;;20.00;99.90;;;;;;10831239;27;20234;-85
2024/05/05 15:17:57;;;;;;;6.38;3.25;;;20.00;99.90;;;;;;10852589;27;20264;-85
2024/05/05 15:23:19;;;;;;;3.33;2.67;;;20.00;99.90;;;;;;10858514;27;20479;-85
2024/05/05 15:28:40;;;;;;;6.15;3.10;;;19.80;99.90;;;;;;10833639;27;20250;-85
2024/05/05 15:34:06;;;;;;;2.50;2.30;;;19.90;99.90;;;;;;10881985;27;20219;-85
2024/05/05 15:39:28;;;;;;;5.75;2.47;;;20.20;99.90;;;;;;10830262;27;20245;-85
2024/05/05 15:44:50;;;;;;;5.05;3.30;;;20.40;58.00;;;;;;10857492;27;20242;-85
2024/05/05 15:50:11;;;;;;;3.88;2.90;;;20.40;99.90;;;;;;10855596;27;20271;-85
2024/05/05 15:55:33;;;;;;;4.15;2.92;;;20.60;43.00;;;;;;10881182;27;20214;-85
2024/05/05 16:00:54;;;;;;;3.15;2.60;;;20.40;97.50;;;;;;10879125;27;20386;-84
2024/05/05 16:06:16;;;;;;;3.53;3.00;;;20.20;99.90;;;;;;10834355;27;20279;-84
2024/05/05 16:11:40;;;;;;;7.80;3.38;;;20.10;99.90;;;;;;10857108;27;20218;-86
2024/05/05 16:17:02;;;;;;;4.80;3.03;;;20.10;99.90;;;;;;10854980;27;20317;-86
2024/05/05 16:22:23;;;;;;;5.22;3.25;;;20.00;99.90;;;;;;10833860;27;20234;-85
2024/05/05 16:27:45;;;;;;;10.15;4.05;;;19.70;99.90;;;;;;10827514;27;20271;-86
2024/05/05 16:33:07;;;;;;;3.88;2.67;;;19.60;1.00;;;;;;10832917;27;20502;-86
2024/05/05 16:38:28;;;;;;;4.47;2.50;;;19.40;1.00;;;;;;10855159;27;20276;-86
2024/05/05 16:43:50;;;;;;;5.13;2.63;;;19.40;1.00;;;;;;10829083;27;20234;-85
2024/05/05 16:49:11;;;;;;;5.30;3.28;;;19.30;1.00;;;;;;10853938;27;20250;-86
2024/05/05 16:54:33;;;;;;;3.10;2.40;;;19.20;1.00;;;;;;10855173;27;20234;-86
2024/05/05 16:59:55;;;;;;;4.38;2.50;;;19.00;1.00;;;;;;10806655;27;20313;-86
2024/05/05 17:05:16;;;;;;;3.00;2.70;;;19.00;1.00;;;;;;10873414;27;20254;-86
2024/05/05 17:10:38;;;;;;;3.95;2.92;;;19.00;1.00;;;;;;10878760;27;20238;-85
2024/05/05 17:16:00;;;;;;;5.10;3.38;;;19.00;1.00;;;;;;10878240;27;20230;-86
2024/05/05 17:21:21;;;;;;;4.25;3.00;;;19.00;99.90;;;;;;10850445;27;20466;-86
2024/05/05 17:26:43;;;;;;;3.30;3.00;;;19.10;1.00;;;;;;10825518;27;20642;-86
2024/05/05 17:32:04;;;;;;;6.20;3.78;;;19.00;99.90;;;;;;10854032;27;20257;-87
2024/05/05 17:37:26;;;;;;;4.90;3.58;;;18.90;99.90;;;;;;10848223;27;20258;-86
2024/05/05 17:42:48;;;;;;;5.40;4.00;;;18.80;77.40;;;;;;10853901;27;20496;-86
2024/05/05 17:48:10;;;;;;;13.65;6.20;;;18.80;99.90;;;;;;10852729;27;20288;-86
2024/05/05 17:53:31;;;;;;;8.15;5.13;;;18.60;99.90;;;;;;10762198;27;20243;-85
2024/05/05 17:58:54;;;;;;;8.00;5.20;;;;;;;;;;10826669;27;20249;-86
2024/05/05 18:04:18;;;;;;;8.18;5.70;;;18.00;1.00;;;;;;10832245;27;20276;-85
2024/05/05 18:09:39;;;;;;;7.90;5.03;;;18.00;1.00;;;;;;10887903;27;20393;-85
2024/05/05 18:15:01;;;;;;;7.18;5.15;;;17.80;99.90;;;;;;10841597;27;20230;-86
2024/05/05 18:20:22;;;;;;;7.20;5.43;;;17.70;99.90;;;;;;10855068;27;20238;-85
2024/05/05 18:25:47;;;;;;;7.68;5.63;;;17.60;1.00;;;;;;10860717;27;20539;-87
2024/05/05 18:31:09;;;;;;;10.75;5.45;;;17.40;1.00;;;;;;10860240;27;20321;-86
2024/05/05 18:36:30;;;;;;;7.95;5.60;;;17.20;1.00;;;;;;10856046;27;20257;-86
2024/05/05 18:41:51;;;;;;;9.32;5.95;;;16.90;1.00;;;;;;10854151;27;20320;-85
2024/05/05 18:47:13;;;;;;;5.70;4.40;;;16.90;99.90;;;;;;10884239;27;20356;-85
2024/05/05 18:52:35;;;;;;;7.45;4.70;;;16.70;1.00;;;;;;10853421;27;20374;-85
2024/05/05 18:57:57;;;;;;;6.50;5.13;;;16.50;1.00;;;;;;10858868;27;20241;-84
2024/05/05 19:03:18;;;;;;;6.13;3.92;;;16.50;1.00;;;;;;10854421;27;20237;-85
2024/05/05 19:08:40;;;;;;;8.82;4.70;;;16.50;99.90;;;;;;10857998;27;20273;-85
2024/05/05 19:14:01;;;;;;;7.40;4.95;;;16.40;99.90;;;;;;10880183;27;20537;-84
2024/05/05 19:19:23;;;;;;;7.82;4.47;;;16.40;1.00;;;;;;10858810;27;20449;-85
2024/05/05 19:24:44;;;;;;;5.60;4.90;;;16.20;99.90;;;;;;10834824;27;20317;-85
2024/05/05 19:30:06;;;;;;;6.90;5.15;;;16.30;9.50;;;;;;10856054;27;20281;-84
2024/05/05 19:35:29;;;;;;;7.13;5.63;;;16.30;99.90;;;;;;10857711;27;20220;-84
2024/05/05 19:40:50;;;;;;;7.25;5.45;;;16.30;1.00;;;;;;10857145;27;20344;-85
2024/05/05 19:46:12;;;;;;;7.25;5.28;;;16.40;1.00;;;;;;10857594;27;20257;-85
2024/05/05 19:51:33;;;;;;;7.85;5.47;;;16.30;99.90;;;;;;10876566;27;20244;-86
2024/05/05 19:56:55;;;;;;;7.38;5.80;;;16.30;1.00;;;;;;10855470;27;20236;-86
2024/05/05 20:02:19;;;;;;;8.00;5.53;;;16.40;99.90;;;;;;10857394;27;20341;-85
2024/05/05 20:07:40;;;;;;;6.80;5.50;;;16.30;99.90;;;;;;10856495;27;20275;-84
2024/05/05 20:13:02;;;;;;;7.20;5.75;;;16.40;99.90;;;;;;10804857;27;20244;-84
2024/05/05 20:18:24;;;;;;;10.38;6.22;;;16.30;1.00;;;;;;10829220;27;20417;-84
2024/05/05 20:23:46;;;;;;;17.25;5.78;;;16.30;1.00;;;;;;10851411;27;20230;-84
2024/05/05 20:29:08;;;;;;;8.25;6.13;;;16.30;1.00;;;;;;10853305;27;20245;-84
2024/05/05 20:34:30;;;;;;;6.60;4.97;;;16.30;1.00;;;;;;10880221;27;20218;-84
2024/05/05 20:39:52;;;;;;;6.30;5.50;;;16.20;99.90;;;;;;10855884;27;20280;-85
2024/05/05 20:45:13;;;;;;;8.68;5.97;;;16.20;1.00;;;;;;10880030;27;20301;-85
2024/05/05 20:50:35;;;;;;;7.45;5.65;;;16.20;1.00;;;;;;10831401;27;20276;-84
2024/05/05 20:55:57;;;;;;;6.13;5.20;;;16.10;1.00;;;;;;10817378;27;20237;-84
2024/05/05 21:01:19;;;;;;;8.13;6.28;;;16.20;1.00;;;;;;10855291;27;20233;-85
2024/05/05 21:06:40;;;;;;;6.90;6.07;;;16.20;1.00;;;;;;10804515;27;20249;-85
2024/05/05 21:12:02;;;;;;;8.63;6.47;;;16.20;1.00;;;;;;10849185;27;20241;-86
2024/05/05 21:17:23;;;;;;;6.85;5.72;;;16.10;93.10;;;;;;10850730;27;20225;-86
2024/05/05 21:22:45;;;;;;;9.23;5.90;;;16.20;1.00;;;;;;10855329;27;20259;-86
2024/05/05 21:28:06;;;;;;;7.47;6.15;;;16.20;1.00;;;;;;10855086;27;20214;-86
2024/05/05 21:33:28;;;;;;;7.40;5.97;;;16.20;1.00;;;;;;10853226;27;20237;-86
2024/05/05 21:38:51;;;;;;;7.53;5.65;;;16.10;99.90;;;;;;10863785;27;20213;-86
2024/05/05 21:44:12;;;;;;;5.88;5.22;;;16.10;99.90;;;;;;10892663;27;20259;-86
2024/05/05 21:49:34;;;;;;;6.90;5.43;;;16.10;1.00;;;;;;10868536;27;20228;-85
2024/05/05 21:54:56;;;;;;;11.00;6.03;;;16.00;1.00;;;;;;10890790;27;20245;-85
2024/05/05 22:00:18;;;;;;;6.90;5.80;;;16.00;1.00;;;;;;10863988;27;20240;-85
2024/05/05 22:05:40;;;;;;;6.43;5.03;;;16.00;1.00;;;;;;10891613;27;20279;-87
2024/05/05 22:11:01;;;;;;;6.93;5.10;;;15.90;99.90;;;;;;10867749;27;20232;-86
2024/05/05 22:16:23;;;;;;;6.55;4.90;;;15.90;1.00;;;;;;10867611;27;20263;-85
2024/05/05 22:21:44;;;;;;;9.85;5.60;;;15.90;99.90;;;;;;10890264;27;20280;-85
2024/05/05 22:27:06;;;;;;;6.60;5.13;;;15.80;1.00;;;;;;10865196;27;20280;-87
2024/05/05 22:32:27;;;;;;;6.45;4.68;;;15.90;1.00;;;;;;10866988;27;20242;-85
2024/05/05 22:37:49;;;;;;;5.18;4.55;;;15.90;1.00;;;;;;10862878;27;20234;-86
2024/05/05 22:43:10;;;;;;;6.07;4.53;;;15.90;1.00;;;;;;10867710;27;20361;-85
2024/05/05 22:48:31;;;;;;;6.13;5.32;;;15.90;1.00;;;;;;10835670;27;20256;-86
2024/05/05 22:53:53;;;;;;;6.63;5.65;;;15.80;1.00;;;;;;10877430;27;20272;-87
2024/05/05 22:59:15;;;;;;;4.95;4.47;;;15.90;99.90;;;;;;10859131;27;20285;-86
2024/05/05 23:04:36;;;;;;;7.07;5.38;;;16.00;99.90;;;;;;10808221;27;20256;-86
2024/05/05 23:09:58;;;;;;;8.10;5.00;;;16.00;1.00;;;;;;10858961;27;20265;-86
2024/05/05 23:15:19;;;;;;;4.57;4.18;;;16.00;99.90;;;;;;10858847;27;20303;-86
2024/05/05 23:20:42;;;;;;;7.47;4.45;;;16.00;1.00;;;;;;10856786;27;20272;-86
2024/05/05 23:26:04;;;;;;;5.82;4.95;;;16.00;99.90;;;;;;10858574;27;20252;-86
2024/05/05 23:31:27;;;;;;;5.38;4.88;;;15.90;1.00;;;;;;10882371;27;20300;-85
2024/05/05 23:36:49;;;;;;;5.38;4.88;;;16.00;1.00;;;;;;10830507;27;20346;-85
2024/05/05 23:42:10;;;;;;;7.05;4.45;;;16.00;1.00;;;;;;10830155;27;20255;-84
2024/05/05 23:47:32;;;;;;;8.43;4.60;;;15.90;99.90;;;;;;10855804;27;20279;-85
2024/05/05 23:52:54;;;;;;;7.18;4.90;;;15.90;1.00;;;;;;10851146;27;20241;-85
2024/05/05 23:58:17;;;;;;;4.90;4.35;;;15.90;1.00;;;;;;10851081;27;20395;-85
